Time;durP1;ratioP1;P1;durP2;ratioP2;P2;SDS_P1;SDS_P2;PMS_P1;PMS_P2;Temp;Humidity;BMP_temperature;BMP_pressure;BME280_temperature;BME280_humidity;BME280_pressure;Samples;Min_cycle;Max_cycle;Signal;HPM_P1;HPM_P2
2021/09/16 00:00:52;;;;;;;3.25;2.95;;;19.10;99.90;;;;;;6187058;23;20393;-85
2021/09/16 00:03:36;;;;;;;2.60;2.40;;;19.10;99.90;;;;;;6206914;23;20371;-87
2021/09/16 00:06:20;;;;;;;3.10;2.90;;;19.10;99.90;;;;;;6185396;23;20939;-92
2021/09/16 00:09:05;;;;;;;2.63;2.43;;;19.00;99.90;;;;;;6179180;23;20447;-90
2021/09/16 00:11:49;;;;;;;2.95;2.67;;;19.00;99.90;;;;;;6186280;23;20413;-88
2021/09/16 00:14:36;;;;;;;2.60;2.40;;;19.00;99.90;;;;;;6206543;23;20379;-89
2021/09/16 00:17:20;;;;;;;2.47;2.28;;;19.10;99.90;;;;;;6184597;23;20433;-89
2021/09/16 00:20:05;;;;;;;2.08;1.98;;;19.10;99.90;;;;;;6226831;23;20387;-90
2021/09/16 00:22:50;;;;;;;2.60;2.40;;;19.10;99.90;;;;;;6185589;23;20390;-90
2021/09/16 00:25:34;;;;;;;2.50;2.30;;;19.00;99.90;;;;;;6205591;23;20378;-88
2021/09/16 00:28:19;;;;;;;2.10;2.00;;;19.10;99.90;;;;;;6185170;23;20382;-90
2021/09/16 00:31:03;;;;;;;2.55;2.35;;;19.10;99.90;;;;;;6184792;23;20398;-90
2021/09/16 00:33:47;;;;;;;2.10;2.00;;;19.10;99.90;;;;;;6228328;23;20546;-88
2021/09/16 00:36:32;;;;;;;2.90;2.70;;;19.00;99.90;;;;;;6184729;23;20379;-89
2021/09/16 00:39:16;;;;;;;1.98;1.88;;;19.00;99.90;;;;;;6205699;23;20387;-91
2021/09/16 00:42:01;;;;;;;2.78;2.42;;;19.00;99.90;;;;;;6205950;23;20762;-91
2021/09/16 00:44:45;;;;;;;1.92;1.83;;;19.00;99.90;;;;;;6203587;23;20385;-92
2021/09/16 00:47:30;;;;;;;2.47;2.28;;;19.00;99.90;;;;;;6186437;23;20427;-91
2021/09/16 00:50:20;;;;;;;2.50;2.30;;;19.00;99.90;;;;;;6184465;23;20395;-90
2021/09/16 00:53:04;;;;;;;2.63;2.38;;;19.00;99.90;;;;;;6185140;23;20653;-93
2021/09/16 00:55:49;;;;;;;1.88;1.77;;;19.00;99.90;;;;;;6184070;23;20387;-89
2021/09/16 00:58:39;;;;;;;2.10;2.00;;;19.10;99.90;;;;;;6206909;23;20395;-90
2021/09/16 01:01:24;;;;;;;1.88;1.77;;;19.00;99.90;;;;;;6184804;23;20383;-89
2021/09/16 01:04:08;;;;;;;2.00;1.90;;;19.00;99.90;;;;;;6185841;23;20424;-88
2021/09/16 01:06:52;;;;;;;2.10;2.00;;;19.00;99.90;;;;;;6206911;23;20366;-89
2021/09/16 01:09:37;;;;;;;2.03;1.83;;;19.00;99.90;;;;;;6185387;23;20452;-91
2021/09/16 01:12:21;;;;;;;2.20;1.88;;;19.00;99.90;;;;;;6204765;23;20359;-91
2021/09/16 01:15:07;;;;;;;2.20;2.00;;;19.00;99.90;;;;;;6185498;23;20391;-89
2021/09/16 01:17:52;;;;;;;2.63;2.43;;;19.00;99.90;;;;;;6206074;23;20420;-90
2021/09/16 01:20:36;;;;;;;1.63;1.52;;;19.00;99.90;;;;;;6226488;23;20431;-91
2021/09/16 01:23:24;;;;;;;2.30;2.10;;;19.10;99.90;;;;;;6184958;23;20395;-92
2021/09/16 01:26:08;;;;;;;1.90;1.80;;;19.10;99.90;;;;;;6185166;23;20367;-86
2021/09/16 01:28:52;;;;;;;2.30;1.80;;;19.00;99.90;;;;;;6184949;23;20390;-88
2021/09/16 01:31:44;;;;;;;1.80;1.70;;;19.10;99.90;;;;;;6185358;23;20599;-90
2021/09/16 01:34:29;;;;;;;1.80;1.70;;;19.10;99.90;;;;;;6204960;23;20430;-92
2021/09/16 01:37:13;;;;;;;2.50;1.90;;;19.10;99.90;;;;;;6205281;23;20370;-89
2021/09/16 01:39:57;;;;;;;1.95;1.85;;;19.10;99.90;;;;;;6204366;23;20371;-88
2021/09/16 01:42:42;;;;;;;2.03;1.90;;;19.10;99.90;;;;;;6184043;23;20370;-91
2021/09/16 01:45:26;;;;;;;1.90;1.80;;;19.10;99.90;;;;;;6203774;23;20415;-90
2021/09/16 01:48:11;;;;;;;2.37;2.17;;;19.10;99.90;;;;;;6182269;23;20371;-91
2021/09/16 01:50:55;;;;;;;1.90;1.80;;;19.10;99.90;;;;;;6182996;23;20453;-89
2021/09/16 01:53:39;;;;;;;2.20;2.00;;;19.10;99.90;;;;;;6205722;23;20367;-91
2021/09/16 01:56:24;;;;;;;3.03;2.40;;;19.20;99.90;;;;;;6206652;23;20362;-88
2021/09/16 01:59:08;;;;;;;2.23;1.87;;;19.20;99.90;;;;;;6183916;23;20427;-92
2021/09/16 02:01:52;;;;;;;2.37;2.20;;;19.10;99.90;;;;;;6184978;23;20375;-92
2021/09/16 02:04:37;;;;;;;2.30;2.10;;;19.20;99.90;;;;;;6183438;23;20424;-92
2021/09/16 02:07:21;;;;;;;2.60;2.40;;;19.20;99.90;;;;;;6226352;23;20370;-89
2021/09/16 02:10:06;;;;;;;2.58;2.38;;;19.20;99.90;;;;;;6183642;23;20370;-88
2021/09/16 02:12:50;;;;;;;2.63;2.45;;;19.20;99.90;;;;;;6184872;23;20435;-91
2021/09/16 02:15:35;;;;;;;1.90;1.77;;;19.10;99.90;;;;;;6183661;23;20387;-91
2021/09/16 02:18:19;;;;;;;2.63;2.42;;;19.20;99.90;;;;;;6184805;23;20555;-92
2021/09/16 02:21:03;;;;;;;2.70;2.50;;;19.20;99.90;;;;;;6205195;23;21030;-88
2021/09/16 02:23:48;;;;;;;2.20;2.10;;;19.20;99.90;;;;;;6204907;23;20406;-91
2021/09/16 02:26:32;;;;;;;2.20;2.10;;;19.20;99.90;;;;;;6182812;23;20432;-89
2021/09/16 02:29:17;;;;;;;2.43;2.23;;;19.20;99.90;;;;;;6183803;23;20379;-88
2021/09/16 02:32:01;;;;;;;2.80;2.60;;;19.20;99.90;;;;;;6184404;23;20423;-85
2021/09/16 02:34:45;;;;;;;2.38;2.20;;;19.20;99.90;;;;;;6203283;23;21074;-92
2021/09/16 02:37:30;;;;;;;4.68;2.42;;;19.40;99.90;;;;;;6204556;23;20397;-91
2021/09/16 02:40:15;;;;;;;2.97;2.78;;;19.20;99.90;;;;;;6142226;23;20390;-90
2021/09/16 02:42:59;;;;;;;2.70;2.50;;;19.20;99.90;;;;;;6142229;23;20482;-90
2021/09/16 02:45:44;;;;;;;2.28;2.03;;;19.20;99.90;;;;;;6183028;23;20907;-93
2021/09/16 02:48:28;;;;;;;2.75;2.55;;;19.20;99.90;;;;;;6164160;23;20379;-88
2021/09/16 02:51:13;;;;;;;3.65;2.67;;;19.20;99.90;;;;;;6181962;23;20459;-92
2021/09/16 02:53:57;;;;;;;2.75;2.55;;;19.20;99.90;;;;;;6184498;23;20374;-89
2021/09/16 02:56:42;;;;;;;2.97;2.72;;;19.20;99.90;;;;;;6183837;23;20367;-91
2021/09/16 02:59:26;;;;;;;3.47;3.22;;;19.20;99.90;;;;;;6141991;23;20395;-89
2021/09/16 03:02:10;;;;;;;3.97;3.53;;;19.20;99.90;;;;;;6164661;23;20508;-93
2021/09/16 03:04:54;;;;;;;2.95;2.75;;;19.20;99.90;;;;;;6160062;23;20414;-89
2021/09/16 03:07:38;;;;;;;4.67;4.23;;;19.20;99.90;;;;;;6141998;23;20355;-92
2021/09/16 03:10:23;;;;;;;3.42;3.13;;;19.10;99.90;;;;;;6207058;23;20366;-90
2021/09/16 03:13:07;;;;;;;2.80;2.60;;;19.10;99.90;;;;;;6145248;23;20417;-90
2021/09/16 03:15:52;;;;;;;4.03;3.63;;;19.10;99.90;;;;;;6164617;23;20389;-89
2021/09/16 03:18:36;;;;;;;3.67;3.38;;;19.10;99.90;;;;;;6186409;23;20374;-90
2021/09/16 03:21:20;;;;;;;5.70;3.10;;;19.20;99.90;;;;;;6206657;23;20373;-89
2021/09/16 03:24:05;;;;;;;4.00;3.70;;;19.20;99.90;;;;;;6164894;23;21069;-90
2021/09/16 03:26:49;;;;;;;4.25;3.80;;;19.10;99.90;;;;;;6144240;23;20374;-90
2021/09/16 03:29:33;;;;;;;3.30;3.10;;;19.10;99.90;;;;;;6187855;23;20435;-90
2021/09/16 03:32:17;;;;;;;3.37;3.07;;;19.20;99.90;;;;;;6144869;23;22666;-94
2021/09/16 03:35:02;;;;;;;3.75;3.42;;;19.10;99.90;;;;;;6161482;23;20788;-90
2021/09/16 03:37:46;;;;;;;3.67;3.38;;;19.20;99.90;;;;;;6143427;23;20390;-90
2021/09/16 03:40:30;;;;;;;3.90;3.40;;;19.20;99.90;;;;;;6144435;22;20382;-91
2021/09/16 03:43:15;;;;;;;3.47;3.17;;;19.20;99.90;;;;;;6144864;23;20462;-88
2021/09/16 03:45:59;;;;;;;2.88;2.67;;;19.20;99.90;;;;;;6144249;23;20375;-92
2021/09/16 03:48:46;;;;;;;4.03;3.63;;;19.20;99.90;;;;;;6186785;23;20417;-91
2021/09/16 03:51:31;;;;;;;4.60;4.20;;;19.20;99.90;;;;;;6143717;23;20664;-90
2021/09/16 03:54:15;;;;;;;5.00;3.53;;;19.20;99.90;;;;;;6184703;23;20385;-94
2021/09/16 03:57:00;;;;;;;4.25;3.55;;;19.20;99.90;;;;;;6146449;23;20359;-91
2021/09/16 03:59:45;;;;;;;3.45;3.15;;;19.20;99.90;;;;;;6147221;23;20366;-93
2021/09/16 04:02:29;;;;;;;3.65;3.28;;;19.20;99.90;;;;;;6149071;22;20375;-92
2021/09/16 04:05:14;;;;;;;3.50;3.20;;;19.10;99.90;;;;;;6172215;22;20362;-91
2021/09/16 04:07:58;;;;;;;3.30;3.07;;;19.20;99.90;;;;;;6151629;22;20418;-93
2021/09/16 04:10:42;;;;;;;4.87;4.47;;;19.20;99.90;;;;;;6149608;23;20355;-91
2021/09/16 04:13:27;;;;;;;4.05;3.70;;;19.20;99.90;;;;;;6148509;23;20481;-91
2021/09/16 04:16:11;;;;;;;4.05;3.22;;;19.10;99.90;;;;;;6162016;23;20394;-88
2021/09/16 04:18:56;;;;;;;3.20;2.97;;;19.10;99.90;;;;;;6161796;23;20374;-89
2021/09/16 04:21:40;;;;;;;5.20;4.05;;;19.10;99.90;;;;;;6189366;22;20359;-93
2021/09/16 04:24:25;;;;;;;3.50;3.20;;;19.00;99.90;;;;;;6150803;22;20354;-93
2021/09/16 04:27:11;;;;;;;3.03;2.80;;;19.00;99.90;;;;;;6170316;22;20543;-92
2021/09/16 04:29:55;;;;;;;3.45;3.15;;;19.10;99.90;;;;;;6149548;22;20406;-92
2021/09/16 04:32:40;;;;;;;3.22;3.00;;;19.10;99.90;;;;;;6171260;22;20350;-92
2021/09/16 04:35:24;;;;;;;3.45;2.95;;;19.10;99.90;;;;;;6147340;22;20397;-93
2021/09/16 04:38:08;;;;;;;4.07;3.73;;;19.10;99.90;;;;;;6191237;23;20438;-91
2021/09/16 04:40:53;;;;;;;4.15;3.85;;;19.00;99.90;;;;;;6191348;23;20370;-92
2021/09/16 04:43:37;;;;;;;3.97;3.58;;;19.10;99.90;;;;;;6192135;23;20351;-91
2021/09/16 04:46:22;;;;;;;3.03;2.83;;;19.10;99.90;;;;;;6192145;23;20346;-93
2021/09/16 04:49:06;;;;;;;3.45;3.15;;;19.10;99.90;;;;;;6179565;23;20354;-91
2021/09/16 04:51:51;;;;;;;3.22;2.92;;;19.10;99.90;;;;;;6211235;23;20387;-92
2021/09/16 04:54:35;;;;;;;3.00;2.80;;;19.10;99.90;;;;;;6190948;23;20405;-93
2021/09/16 04:57:19;;;;;;;4.43;4.03;;;19.10;99.90;;;;;;6190911;23;20358;-91
2021/09/16 05:00:04;;;;;;;6.68;3.65;;;19.10;99.90;;;;;;6191059;23;20366;-91
2021/09/16 05:02:48;;;;;;;3.90;3.60;;;19.00;99.90;;;;;;6212001;23;20413;-94
2021/09/16 05:05:33;;;;;;;3.28;2.97;;;19.00;99.90;;;;;;6191266;23;20354;-92
2021/09/16 05:08:18;;;;;;;3.15;2.85;;;19.10;99.90;;;;;;6191809;23;20437;-92
2021/09/16 05:11:02;;;;;;;2.58;2.47;;;19.00;99.90;;;;;;6169947;23;20396;-93
2021/09/16 05:13:47;;;;;;;4.10;3.70;;;19.10;99.90;;;;;;6191741;23;20378;-92
2021/09/16 05:16:31;;;;;;;3.00;2.80;;;19.10;99.90;;;;;;6185725;23;20383;-91
2021/09/16 05:19:16;;;;;;;3.67;3.37;;;19.10;99.90;;;;;;6181068;23;20406;-89
2021/09/16 05:22:00;;;;;;;3.30;3.03;;;19.10;99.90;;;;;;6183854;23;20403;-89
2021/09/16 05:24:44;;;;;;;3.40;3.10;;;19.20;99.90;;;;;;6204640;23;20374;-90
2021/09/16 05:27:28;;;;;;;3.05;2.85;;;19.10;99.90;;;;;;6183339;23;20432;-91
2021/09/16 05:30:14;;;;;;;3.10;2.90;;;19.10;99.90;;;;;;6183367;23;20395;-93
2021/09/16 05:32:58;;;;;;;3.43;3.10;;;19.10;99.90;;;;;;6183500;23;20577;-90
2021/09/16 05:35:42;;;;;;;3.77;3.10;;;19.10;99.90;;;;;;6184256;23;20370;-90
2021/09/16 05:38:27;;;;;;;3.93;3.63;;;19.10;99.90;;;;;;6184531;23;20454;-90
2021/09/16 05:41:11;;;;;;;3.13;2.87;;;19.10;99.90;;;;;;6180900;23;20399;-92
2021/09/16 05:43:56;;;;;;;3.50;3.20;;;19.10;99.90;;;;;;6184987;23;20362;-92
2021/09/16 05:46:41;;;;;;;4.10;3.70;;;19.10;99.90;;;;;;6185013;23;20924;-93
2021/09/16 05:49:25;;;;;;;7.50;5.20;;;19.10;99.90;;;;;;6183653;23;20446;-93
2021/09/16 05:52:09;;;;;;;4.90;4.43;;;19.00;99.90;;;;;;6183866;23;20398;-91
2021/09/16 05:54:54;;;;;;;3.80;3.43;;;19.00;99.90;;;;;;6185072;23;20369;-88
2021/09/16 05:57:38;;;;;;;3.53;3.23;;;19.00;99.90;;;;;;6184328;23;20366;-91
2021/09/16 06:00:23;;;;;;;4.70;4.30;;;19.00;99.90;;;;;;6183550;23;20382;-92
2021/09/16 06:03:07;;;;;;;4.45;3.92;;;19.00;99.90;;;;;;6184028;23;20362;-90
2021/09/16 06:05:52;;;;;;;3.83;3.53;;;19.20;99.90;;;;;;6183344;23;20371;-92
2021/09/16 06:08:36;;;;;;;4.35;3.95;;;19.00;99.90;;;;;;6183820;23;20398;-92
2021/09/16 06:11:20;;;;;;;5.38;4.80;;;19.10;99.90;;;;;;6182934;23;20404;-92
2021/09/16 06:14:05;;;;;;;4.18;3.88;;;19.10;99.90;;;;;;6205201;23;20443;-88
2021/09/16 06:16:52;;;;;;;5.07;4.57;;;19.20;99.90;;;;;;6182809;23;20367;-92
2021/09/16 06:19:36;;;;;;;5.88;5.38;;;19.20;99.90;;;;;;6183273;23;20382;-91
2021/09/16 06:22:20;;;;;;;4.73;4.33;;;19.30;99.90;;;;;;6182199;23;20370;-92
2021/09/16 06:25:06;;;;;;;4.33;3.93;;;19.40;99.90;;;;;;6184386;23;20398;-92
2021/09/16 06:27:50;;;;;;;4.78;4.22;;;19.40;99.90;;;;;;6181929;23;20845;-90
2021/09/16 06:30:34;;;;;;;6.30;5.80;;;19.50;99.90;;;;;;6181606;23;20346;-91
2021/09/16 06:33:19;;;;;;;6.10;4.87;;;19.40;99.90;;;;;;6181452;23;21085;-87
2021/09/16 06:36:05;;;;;;;5.73;5.23;;;19.40;99.90;;;;;;6202740;23;20391;-88
2021/09/16 06:38:49;;;;;;;6.20;5.60;;;19.40;99.90;;;;;;6181797;23;20374;-92
2021/09/16 06:41:33;;;;;;;5.30;4.80;;;19.20;99.90;;;;;;6202509;23;20370;-92
2021/09/16 06:44:18;;;;;;;5.13;4.60;;;19.30;99.90;;;;;;6180195;23;20369;-92
2021/09/16 06:47:02;;;;;;;4.97;4.35;;;19.20;99.90;;;;;;6202036;23;20435;-88
2021/09/16 06:49:48;;;;;;;4.43;4.03;;;19.20;99.90;;;;;;6180611;23;20374;-91
2021/09/16 06:52:32;;;;;;;5.45;4.47;;;19.20;99.90;;;;;;6202499;23;20386;-90
2021/09/16 06:55:17;;;;;;;4.20;3.80;;;19.20;99.90;;;;;;6181394;23;20394;-89
2021/09/16 06:58:02;;;;;;;4.47;4.07;;;19.10;99.90;;;;;;6182090;23;20386;-88
2021/09/16 07:00:46;;;;;;;3.88;3.58;;;19.00;99.90;;;;;;6182335;23;20363;-89
2021/09/16 07:03:30;;;;;;;3.20;3.00;;;19.10;99.90;;;;;;6203807;23;20488;-91
2021/09/16 07:06:15;;;;;;;3.70;3.40;;;19.20;99.90;;;;;;6181556;23;20370;-92
2021/09/16 07:08:59;;;;;;;3.92;3.63;;;19.20;99.90;;;;;;6202405;23;20427;-89
2021/09/16 07:11:43;;;;;;;3.38;3.08;;;19.20;99.90;;;;;;6181840;23;20382;-88
2021/09/16 07:14:30;;;;;;;4.32;3.90;;;19.20;99.90;;;;;;6182316;23;20394;-89
2021/09/16 07:17:14;;;;;;;4.30;3.90;;;19.20;99.90;;;;;;6203374;23;20398;-88
2021/09/16 07:19:59;;;;;;;4.50;4.10;;;19.10;99.90;;;;;;6180229;23;20370;-89
2021/09/16 07:22:43;;;;;;;4.13;3.72;;;19.10;99.90;;;;;;6182453;23;20440;-89
2021/09/16 07:25:27;;;;;;;4.18;3.78;;;19.00;99.90;;;;;;6181799;23;20366;-92
2021/09/16 07:28:12;;;;;;;3.70;3.40;;;19.00;99.90;;;;;;6182259;23;20394;-90
2021/09/16 07:30:56;;;;;;;3.15;2.95;;;19.00;99.90;;;;;;6180732;23;20397;-88
2021/09/16 07:33:40;;;;;;;3.70;3.30;;;18.90;99.90;;;;;;6182107;23;20414;-91
2021/09/16 07:36:25;;;;;;;4.78;3.60;;;19.00;99.90;;;;;;6181712;23;20424;-91
2021/09/16 07:39:10;;;;;;;3.70;3.40;;;19.00;99.90;;;;;;6181885;23;20429;-87
2021/09/16 07:41:54;;;;;;;3.70;3.40;;;19.10;99.90;;;;;;6200610;23;20378;-90
2021/09/16 07:44:39;;;;;;;3.75;3.03;;;19.20;99.90;;;;;;6181624;23;20371;-89
2021/09/16 07:47:23;;;;;;;3.22;2.92;;;19.20;99.90;;;;;;6179246;23;20419;-87
2021/09/16 07:50:08;;;;;;;3.42;3.13;;;19.20;99.90;;;;;;6179205;23;20379;-89
2021/09/16 07:52:52;;;;;;;2.80;2.50;;;19.20;99.90;;;;;;6180551;23;20390;-89
2021/09/16 07:55:37;;;;;;;3.00;2.80;;;19.40;99.90;;;;;;6180949;23;20386;-90
2021/09/16 07:58:22;;;;;;;3.80;2.88;;;19.40;99.90;;;;;;6204573;23;20371;-91
2021/09/16 08:01:06;;;;;;;2.83;2.40;;;19.50;99.90;;;;;;6183005;23;20822;-89
2021/09/16 08:03:50;;;;;;;2.72;2.53;;;19.60;99.90;;;;;;6184089;23;20394;-92
2021/09/16 08:06:35;;;;;;;2.80;2.60;;;19.60;99.90;;;;;;6182852;23;20783;-93
2021/09/16 08:09:19;;;;;;;3.30;2.80;;;19.60;99.90;;;;;;6202732;23;20428;-89
2021/09/16 08:12:04;;;;;;;2.95;2.72;;;19.70;99.90;;;;;;6182301;23;20370;-89
2021/09/16 08:14:49;;;;;;;3.88;2.45;;;19.60;99.90;;;;;;6203678;23;20949;-89
2021/09/16 08:17:33;;;;;;;2.15;1.95;;;19.80;99.90;;;;;;6183274;23;20390;-90
2021/09/16 08:20:17;;;;;;;2.63;2.42;;;19.90;99.90;;;;;;6183932;23;20887;-91
2021/09/16 08:23:02;;;;;;;2.67;2.47;;;20.00;99.90;;;;;;6203974;23;20374;-90
2021/09/16 08:25:46;;;;;;;3.17;2.88;;;20.10;99.90;;;;;;6183308;23;20431;-92
2021/09/16 08:28:30;;;;;;;2.70;2.50;;;19.80;99.90;;;;;;6184834;23;20366;-88
2021/09/16 08:31:15;;;;;;;2.50;2.30;;;19.70;99.90;;;;;;6181805;23;20367;-90
2021/09/16 08:33:59;;;;;;;2.10;2.00;;;19.70;99.90;;;;;;6205201;23;20410;-91
2021/09/16 08:36:44;;;;;;;1.98;1.88;;;19.60;99.90;;;;;;6182122;23;20402;-93
2021/09/16 08:39:28;;;;;;;1.92;1.83;;;19.50;99.90;;;;;;6206128;23;20374;-86
2021/09/16 08:42:13;;;;;;;1.55;1.40;;;19.40;99.90;;;;;;6184112;23;20395;-90
2021/09/16 08:44:57;;;;;;;1.63;1.52;;;19.30;99.90;;;;;;6182780;23;20426;-91
2021/09/16 08:47:42;;;;;;;1.60;1.50;;;19.40;99.90;;;;;;6183497;23;20406;-87
2021/09/16 08:50:28;;;;;;;1.60;1.50;;;19.50;99.90;;;;;;6182895;23;20361;-91
2021/09/16 08:53:17;;;;;;;1.50;1.40;;;19.50;99.90;;;;;;6181537;23;20441;-88
2021/09/16 08:56:03;;;;;;;1.45;1.35;;;19.70;99.90;;;;;;6183254;23;20433;-92
2021/09/16 08:58:50;;;;;;;1.38;1.27;;;19.70;99.90;;;;;;6184013;23;20516;-91
2021/09/16 09:01:35;;;;;;;1.00;1.00;;;19.60;99.90;;;;;;6202654;23;20370;-89
2021/09/16 09:04:20;;;;;;;1.00;1.00;;;19.90;99.90;;;;;;6182016;23;20375;-91
2021/09/16 09:07:05;;;;;;;1.00;1.00;;;20.00;99.90;;;;;;6203777;23;20455;-91
2021/09/16 09:09:49;;;;;;;1.20;1.10;;;20.00;99.90;;;;;;6202453;23;20370;-89
2021/09/16 09:12:37;;;;;;;1.10;0.90;;;20.10;99.90;;;;;;6203570;23;20363;-88
2021/09/16 09:15:21;;;;;;;0.70;0.70;;;20.30;99.90;;;;;;6181921;23;20425;-90
2021/09/16 09:18:08;;;;;;;0.73;0.73;;;20.30;99.90;;;;;;6182063;23;20398;-90
2021/09/16 09:21:03;;;;;;;0.80;0.80;;;20.20;99.90;;;;;;6181443;23;20375;-91
2021/09/16 09:23:54;;;;;;;0.90;0.90;;;20.20;99.90;;;;;;6203178;23;20358;-90
2021/09/16 09:26:39;;;;;;;1.02;1.02;;;20.20;99.90;;;;;;6204982;23;20418;-90
2021/09/16 09:29:24;;;;;;;1.30;1.20;;;20.40;99.90;;;;;;6182574;23;20398;-93
2021/09/16 09:32:08;;;;;;;1.00;1.00;;;20.40;99.90;;;;;;6182290;23;20362;-90
2021/09/16 09:34:52;;;;;;;1.00;1.00;;;20.60;99.90;;;;;;6181980;23;20379;-90
2021/09/16 09:37:37;;;;;;;1.00;0.90;;;20.70;99.90;;;;;;6182219;23;20421;-89
2021/09/16 09:40:25;;;;;;;1.07;1.07;;;21.00;99.90;;;;;;6161394;23;20846;-91
2021/09/16 09:43:30;;;;;;;1.00;0.90;;;21.00;99.90;;;;;;6141212;23;20374;-92
2021/09/16 09:46:16;;;;;;;1.10;1.10;;;21.10;99.90;;;;;;6141230;23;20398;-91
2021/09/16 09:49:05;;;;;;;1.35;1.25;;;21.10;99.90;;;;;;6161360;23;20367;-92
2021/09/16 09:51:51;;;;;;;0.90;0.90;;;21.20;99.90;;;;;;6180877;23;20464;-95
2021/09/16 09:54:39;;;;;;;1.00;1.00;;;21.20;99.90;;;;;;6182192;23;20514;-92
2021/09/16 09:57:23;;;;;;;0.90;0.90;;;21.20;99.90;;;;;;6181544;23;20371;-89
2021/09/16 10:00:12;;;;;;;0.75;0.75;;;21.30;99.90;;;;;;6182476;23;20424;-92
2021/09/16 10:02:56;;;;;;;1.00;1.00;;;21.10;99.90;;;;;;6182910;23;20367;-91
2021/09/16 10:05:40;;;;;;;0.90;0.90;;;21.10;99.90;;;;;;6162013;23;20415;-91
2021/09/16 10:08:25;;;;;;;0.70;0.70;;;21.00;99.90;;;;;;6140564;23;20414;-90
2021/09/16 10:11:09;;;;;;;0.85;0.85;;;21.10;99.90;;;;;;6140821;23;20391;-89
2021/09/16 10:13:56;;;;;;;1.70;0.93;;;21.10;99.90;;;;;;6141053;23;20378;-92
2021/09/16 10:16:40;;;;;;;0.73;0.73;;;20.90;99.90;;;;;;6142254;23;20865;-92
2021/09/16 10:19:24;;;;;;;0.70;0.70;;;21.00;99.90;;;;;;6138315;23;20390;-92
2021/09/16 10:22:10;;;;;;;0.73;0.73;;;21.20;99.90;;;;;;6140672;23;20406;-90
2021/09/16 10:24:54;;;;;;;0.80;0.80;;;21.40;99.90;;;;;;6139723;23;20442;-94
2021/09/16 10:27:55;;;;;;;0.65;0.65;;;21.30;99.90;;;;;;6161501;23;20397;-90
2021/09/16 10:30:46;;;;;;;0.50;0.50;;;21.50;99.90;;;;;;6162290;23;20370;-91
2021/09/16 10:33:31;;;;;;;0.95;0.88;;;21.60;99.90;;;;;;6163009;23;20363;-91
2021/09/16 10:36:15;;;;;;;0.70;0.70;;;21.80;99.90;;;;;;6166070;23;20625;-89
2021/09/16 10:39:00;;;;;;;0.70;0.70;;;21.80;99.90;;;;;;6154669;23;20414;-89
2021/09/16 10:41:44;;;;;;;0.80;0.80;;;21.70;99.90;;;;;;6203096;23;20382;-90
2021/09/16 10:44:29;;;;;;;1.10;0.70;;;21.80;99.90;;;;;;6184093;23;20355;-91
2021/09/16 10:47:17;;;;;;;0.70;0.70;;;21.90;99.90;;;;;;6182503;23;20510;-93
2021/09/16 10:50:19;;;;;;;0.70;0.70;;;21.90;99.90;;;;;;6181647;23;20801;-92
2021/09/16 10:53:31;;;;;;;0.60;0.60;;;22.00;99.90;;;;;;6181940;23;20367;-92
2021/09/16 10:56:31;;;;;;;0.73;0.73;;;22.00;99.90;;;;;;6224567;23;20371;-92
2021/09/16 10:59:15;;;;;;;0.70;0.70;;;21.90;99.90;;;;;;6203677;23;20375;-91
2021/09/16 11:01:59;;;;;;;0.60;0.60;;;21.70;99.90;;;;;;6182666;23;20451;-89
2021/09/16 11:04:59;;;;;;;0.70;0.70;;;21.60;99.90;;;;;;6183978;23;20371;-88
2021/09/16 11:07:49;;;;;;;0.80;0.77;;;21.80;99.90;;;;;;6205507;23;20879;-91
2021/09/16 11:10:36;;;;;;;0.80;0.80;;;21.80;99.90;;;;;;6203990;23;20414;-92
2021/09/16 11:13:32;;;;;;;0.70;0.70;;;21.40;99.90;;;;;;6205633;23;20414;-89
2021/09/16 11:16:20;;;;;;;0.98;0.90;;;21.40;99.90;;;;;;6182178;23;20439;-91
2021/09/16 11:19:05;;;;;;;0.60;0.60;;;21.30;99.90;;;;;;6182273;23;20412;-92
2021/09/16 11:22:08;;;;;;;0.80;0.80;;;21.50;99.90;;;;;;6181666;23;20373;-93
2021/09/16 11:24:54;;;;;;;0.63;0.63;;;21.70;99.90;;;;;;6161311;23;20370;-91
2021/09/16 11:27:39;;;;;;;0.70;0.70;;;21.90;99.90;;;;;;6182241;23;20367;-93
2021/09/16 11:30:24;;;;;;;0.90;0.90;;;22.00;99.90;;;;;;6182711;23;20371;-93
2021/09/16 11:33:10;;;;;;;1.50;1.10;;;21.60;99.90;;;;;;6184399;23;20393;-91
2021/09/16 11:36:05;;;;;;;0.80;0.80;;;21.10;99.90;;;;;;6205859;23;20443;-93
2021/09/16 11:38:50;;;;;;;1.23;1.13;;;21.00;99.90;;;;;;6207311;23;20386;-91
2021/09/16 11:41:34;;;;;;;1.10;0.90;;;21.20;99.90;;;;;;6186016;23;20390;-92
2021/09/16 11:44:18;;;;;;;0.88;0.88;;;21.60;99.90;;;;;;6186573;23;20375;-90
2021/09/16 11:47:03;;;;;;;0.90;0.90;;;21.80;99.90;;;;;;6206523;23;20366;-90
2021/09/16 11:49:47;;;;;;;0.85;0.85;;;22.00;99.90;;;;;;6205236;23;20458;-93
2021/09/16 11:52:32;;;;;;;0.80;0.80;;;22.20;99.90;;;;;;6185843;23;20386;-92
2021/09/16 11:55:16;;;;;;;0.90;0.90;;;22.10;99.90;;;;;;6207129;23;20450;-92
2021/09/16 11:58:15;;;;;;;0.80;0.80;;;22.10;99.90;;;;;;6207457;23;20362;-94
2021/09/16 12:01:04;;;;;;;0.80;0.80;;;22.10;99.90;;;;;;6185674;23;20379;-91
2021/09/16 12:03:57;;;;;;;0.80;0.80;;;22.20;99.90;;;;;;6186049;23;20394;-92
2021/09/16 12:06:41;;;;;;;1.10;1.10;;;22.40;99.90;;;;;;6188151;23;20363;-92
2021/09/16 12:09:25;;;;;;;1.27;0.85;;;22.40;99.90;;;;;;6186168;23;20390;-92
2021/09/16 12:12:10;;;;;;;1.00;1.00;;;23.00;99.90;;;;;;6189014;23;20378;-91
2021/09/16 12:14:54;;;;;;;1.20;1.15;;;23.30;99.90;;;;;;6188809;23;20366;-93
2021/09/16 12:17:38;;;;;;;0.88;0.88;;;23.40;99.90;;;;;;6188094;23;20370;-91
2021/09/16 12:20:23;;;;;;;0.88;0.88;;;23.60;99.90;;;;;;6189175;23;20358;-92
2021/09/16 12:23:11;;;;;;;1.37;1.27;;;23.80;99.90;;;;;;6211564;23;20363;-92
2021/09/16 12:25:58;;;;;;;0.70;0.70;;;24.20;99.90;;;;;;6209830;23;20346;-91
2021/09/16 12:28:53;;;;;;;1.65;1.08;;;24.70;99.90;;;;;;6191017;22;20382;-91
2021/09/16 12:31:45;;;;;;;0.95;0.95;;;25.00;99.90;;;;;;6190797;23;20420;-93
2021/09/16 12:34:34;;;;;;;1.90;1.00;;;25.10;99.90;;;;;;6192080;23;20419;-92
2021/09/16 12:37:18;;;;;;;1.00;1.00;;;24.90;99.90;;;;;;6192181;23;20407;-93
2021/09/16 12:40:03;;;;;;;0.90;0.90;;;24.80;99.90;;;;;;6190988;23;20395;-92
2021/09/16 12:42:47;;;;;;;1.00;1.00;;;24.40;99.90;;;;;;6190155;23;20375;-92
2021/09/16 12:45:32;;;;;;;1.00;1.00;;;23.80;99.90;;;;;;6212196;23;20354;-92
2021/09/16 12:48:21;;;;;;;1.00;0.98;;;24.40;99.90;;;;;;6191186;23;20367;-91
2021/09/16 12:51:10;;;;;;;1.10;1.10;;;24.90;99.90;;;;;;6191610;23;20378;-93
2021/09/16 12:53:54;;;;;;;0.93;0.93;;;24.40;99.90;;;;;;6189867;23;20416;-92
2021/09/16 12:56:38;;;;;;;0.85;0.85;;;24.30;99.90;;;;;;6190160;23;20374;-93
2021/09/16 12:59:24;;;;;;;0.80;0.80;;;24.30;99.90;;;;;;6188729;23;20404;-92
2021/09/16 13:02:10;;;;;;;1.10;1.00;;;24.30;99.90;;;;;;6188857;23;20377;-93
2021/09/16 13:05:03;;;;;;;1.00;1.00;;;23.90;99.90;;;;;;6189010;23;20374;-92
2021/09/16 13:08:25;;;;;;;0.80;0.80;;;23.90;99.90;;;;;;6189913;23;20370;-92
2021/09/16 13:11:22;;;;;;;0.80;0.80;;;24.10;99.90;;;;;;6191257;23;20367;-92
2021/09/16 13:14:07;;;;;;;0.90;0.90;;;23.80;99.90;;;;;;6189958;23;20366;-93
2021/09/16 13:16:52;;;;;;;1.80;0.80;;;23.60;99.90;;;;;;6209459;23;20367;-90
2021/09/16 13:19:36;;;;;;;0.77;0.77;;;23.50;99.90;;;;;;6187427;23;20417;-90
2021/09/16 13:22:22;;;;;;;0.70;0.70;;;23.30;99.90;;;;;;6185188;23;20359;-90
2021/09/16 13:25:07;;;;;;;0.70;0.70;;;23.20;99.90;;;;;;6186625;23;20384;-91
2021/09/16 13:27:52;;;;;;;0.80;0.80;;;23.30;99.90;;;;;;6186482;23;20378;-92
2021/09/16 13:30:36;;;;;;;0.80;0.80;;;23.40;99.90;;;;;;6187624;23;20378;-92
2021/09/16 13:33:20;;;;;;;0.77;0.77;;;23.30;99.90;;;;;;6186406;23;20991;-93
2021/09/16 13:36:05;;;;;;;0.77;0.77;;;23.70;99.90;;;;;;6187365;23;20374;-93
2021/09/16 13:38:50;;;;;;;1.10;1.00;;;24.50;99.90;;;;;;6189463;23;20403;-91
2021/09/16 13:41:35;;;;;;;0.90;0.90;;;24.50;99.90;;;;;;6208198;23;20366;-92
2021/09/16 13:44:21;;;;;;;0.90;0.90;;;24.20;99.90;;;;;;6187507;23;20394;-91
2021/09/16 13:47:05;;;;;;;0.80;0.80;;;23.70;99.90;;;;;;6208933;23;20381;-92
2021/09/16 13:49:50;;;;;;;0.73;0.73;;;23.70;99.90;;;;;;6208530;23;20518;-91
2021/09/16 13:52:34;;;;;;;0.90;0.90;;;23.70;99.90;;;;;;6184305;23;20443;-89
2021/09/16 13:55:19;;;;;;;0.73;0.68;;;23.90;99.90;;;;;;6185476;23;20399;-92
2021/09/16 13:58:03;;;;;;;0.80;0.80;;;23.70;99.90;;;;;;6185285;23;20862;-93
2021/09/16 14:00:50;;;;;;;0.70;0.70;;;23.30;99.90;;;;;;6184243;23;20367;-92
2021/09/16 14:03:34;;;;;;;0.90;0.90;;;23.00;99.90;;;;;;6204604;23;20398;-93
2021/09/16 14:06:19;;;;;;;1.20;0.83;;;22.80;99.90;;;;;;6183617;23;20403;-91
2021/09/16 14:09:05;;;;;;;0.88;0.82;;;22.60;99.90;;;;;;6225080;23;23066;-93
2021/09/16 14:11:49;;;;;;;0.60;0.60;;;22.50;99.90;;;;;;6183148;23;20394;-91
2021/09/16 14:14:33;;;;;;;0.68;0.68;;;22.30;99.90;;;;;;6226802;23;20776;-92
2021/09/16 14:17:18;;;;;;;0.80;0.80;;;22.30;99.90;;;;;;6184025;23;20374;-92
2021/09/16 14:20:04;;;;;;;1.42;0.80;;;22.30;99.90;;;;;;6181731;23;20363;-93
2021/09/16 14:22:47;;;;;;;0.70;0.70;;;22.10;99.90;;;;;;6182915;23;20520;-92